createdAt,value
2019-01-31T00:02:10.883Z,3.10
2019-01-31T00:05:02.342Z,4.00
2019-01-31T00:07:52.222Z,4.37
2019-01-31T00:10:27.218Z,4.10
2019-01-31T00:13:17.975Z,4.30
2019-01-31T00:16:15.077Z,3.72
2019-01-31T00:19:01.744Z,3.77
2019-01-31T00:25:13.336Z,4.42
2019-01-31T00:27:48.460Z,2.90
2019-01-31T00:30:36.476Z,3.87
2019-01-31T00:33:18.883Z,3.72
2019-01-31T00:36:21.985Z,2.75
2019-01-31T00:39:25.139Z,3.08
2019-01-31T00:42:31.282Z,2.95
2019-01-31T00:45:02.953Z,2.85
2019-01-31T00:47:57.417Z,3.35
2019-01-31T00:50:48.495Z,2.90
2019-01-31T00:53:55.100Z,2.90
2019-01-31T00:56:48.694Z,2.37
2019-01-31T00:59:22.100Z,2.70
2019-01-31T01:02:23.181Z,2.40
2019-01-31T01:05:26.535Z,2.52
2019-01-31T01:08:04.337Z,2.70
2019-01-31T01:11:04.646Z,2.40
2019-01-31T01:13:43.287Z,2.83
2019-01-31T01:16:18.520Z,2.65
2019-01-31T01:19:12.388Z,3.10
2019-01-31T01:22:10.004Z,3.00
2019-01-31T01:28:07.856Z,3.20
2019-01-31T01:30:55.041Z,3.30
2019-01-31T01:33:58.525Z,2.87
2019-01-31T01:36:31.806Z,3.00
2019-01-31T01:39:19.194Z,2.60
2019-01-31T01:42:09.286Z,3.12
2019-01-31T01:44:58.357Z,2.92
2019-01-31T01:51:37.436Z,3.47
2019-01-31T01:54:17.681Z,2.98
2019-01-31T01:57:05.721Z,2.90
2019-01-31T01:59:52.385Z,3.80
2019-01-31T02:02:59.658Z,3.10
2019-01-31T02:05:47.660Z,3.30
2019-01-31T02:08:34.509Z,3.58
2019-01-31T02:11:22.853Z,3.00
2019-01-31T02:13:57.773Z,3.47
2019-01-31T02:16:51.415Z,4.15
2019-01-31T02:19:43.961Z,3.17
2019-01-31T02:22:18.761Z,3.22
2019-01-31T02:24:59.422Z,3.65
2019-01-31T02:28:19.705Z,2.65
2019-01-31T02:31:10.476Z,3.27
2019-01-31T02:34:04.516Z,3.65
2019-01-31T02:37:01.904Z,2.90
2019-01-31T02:39:48.481Z,3.90
2019-01-31T02:42:23.902Z,3.35
2019-01-31T02:45:05.488Z,3.77
2019-01-31T02:47:38.608Z,3.90
2019-01-31T02:50:12.673Z,4.05
2019-01-31T02:52:59.496Z,3.70
2019-01-31T02:55:50.498Z,3.92
2019-01-31T02:58:41.940Z,2.90
2019-01-31T03:01:36.211Z,3.85
2019-01-31T03:04:10.540Z,3.60
2019-01-31T03:06:59.630Z,3.95
2019-01-31T03:09:38.472Z,4.03
2019-01-31T03:12:14.435Z,3.30
2019-01-31T03:14:46.329Z,3.45
2019-01-31T03:17:39.438Z,3.10
2019-01-31T03:20:27.356Z,3.60
2019-01-31T03:23:24.429Z,3.33
2019-01-31T03:26:02.374Z,3.90
2019-01-31T03:28:53.491Z,3.70
2019-01-31T03:31:29.791Z,3.77
2019-01-31T03:34:17.838Z,3.75
2019-01-31T03:37:00.737Z,2.95
2019-01-31T03:39:42.002Z,3.17
2019-01-31T03:42:23.020Z,2.80
2019-01-31T03:45:14.301Z,3.37
2019-01-31T03:48:01.873Z,3.40
2019-01-31T03:50:41.517Z,3.70
2019-01-31T03:53:33.069Z,3.80
2019-01-31T03:56:15.669Z,3.30
2019-01-31T03:58:50.458Z,3.87
2019-01-31T04:01:41.305Z,3.60
2019-01-31T04:04:22.230Z,3.00
2019-01-31T04:06:51.183Z,3.25
2019-01-31T04:09:38.318Z,3.52
2019-01-31T04:12:07.313Z,3.65
2019-01-31T04:14:36.233Z,3.22
2019-01-31T04:17:05.225Z,3.22
2019-01-31T04:19:34.182Z,3.22
2019-01-31T04:22:03.653Z,3.05
2019-01-31T04:24:32.998Z,4.28
2019-01-31T04:27:26.296Z,2.65
2019-01-31T04:29:55.668Z,3.77
2019-01-31T04:32:25.055Z,3.50
2019-01-31T04:34:55.908Z,3.33
2019-01-31T04:37:24.837Z,3.20
2019-01-31T04:39:53.809Z,3.17
2019-01-31T04:42:22.764Z,3.10
2019-01-31T04:44:51.712Z,3.10
2019-01-31T04:47:20.671Z,2.98
2019-01-31T04:49:49.620Z,3.60
2019-01-31T04:52:18.780Z,2.75
2019-01-31T04:54:48.064Z,3.15
2019-01-31T04:57:26.665Z,3.77
2019-01-31T04:59:56.186Z,2.98
2019-01-31T05:02:25.135Z,3.02
2019-01-31T05:04:54.468Z,3.17
2019-01-31T05:07:23.391Z,3.83
2019-01-31T05:09:53.259Z,3.40
2019-01-31T05:12:22.208Z,3.17
2019-01-31T05:14:51.188Z,3.62
2019-01-31T05:17:20.534Z,4.40
2019-01-31T05:20:10.650Z,3.47
2019-01-31T05:22:39.996Z,3.02
2019-01-31T05:25:09.349Z,3.55
2019-01-31T05:27:38.646Z,3.30
2019-01-31T05:30:08.599Z,3.20
2019-01-31T05:32:37.597Z,3.72
2019-01-31T05:35:06.670Z,3.92
2019-01-31T05:37:54.613Z,3.92
2019-01-31T05:40:23.619Z,3.25
2019-01-31T05:42:52.653Z,3.60
2019-01-31T05:45:22.370Z,3.87
2019-01-31T05:47:59.336Z,3.50
2019-01-31T05:50:28.750Z,3.17
2019-01-31T05:53:21.238Z,3.53
2019-01-31T05:56:15.230Z,3.80
2019-01-31T05:58:44.186Z,3.12
2019-01-31T06:01:13.138Z,3.47
2019-01-31T06:03:51.123Z,3.43
2019-01-31T06:06:20.425Z,3.65
2019-01-31T06:08:49.394Z,3.40
2019-01-31T06:11:18.371Z,4.00
2019-01-31T06:13:47.371Z,3.97
2019-01-31T06:16:22.201Z,3.05
2019-01-31T06:18:51.413Z,3.87
2019-01-31T06:21:20.428Z,3.60
2019-01-31T06:23:50.599Z,4.50
2019-01-31T06:26:19.541Z,3.92
2019-01-31T06:32:06.065Z,3.65
2019-01-31T06:34:35.011Z,3.83
2019-01-31T06:37:03.977Z,3.77
2019-01-31T06:39:32.942Z,3.67
2019-01-31T06:42:02.020Z,3.23
2019-01-31T06:44:31.012Z,3.40
2019-01-31T06:46:59.977Z,3.22
2019-01-31T06:49:29.368Z,3.37
2019-01-31T06:51:58.684Z,3.70
2019-01-31T06:54:27.655Z,3.83
2019-01-31T06:56:57.057Z,3.67
2019-01-31T06:59:26.353Z,2.97
2019-01-31T07:01:55.853Z,2.80
2019-01-31T07:04:24.845Z,2.83
2019-01-31T07:06:54.277Z,2.75
2019-01-31T07:09:23.248Z,3.00
2019-01-31T07:11:52.644Z,2.30
2019-01-31T07:14:21.948Z,2.30
2019-01-31T07:16:51.573Z,2.40
2019-01-31T07:19:20.554Z,2.67
2019-01-31T07:21:49.719Z,2.65
2019-01-31T07:24:28.237Z,3.00
2019-01-31T07:26:57.236Z,2.93
2019-01-31T07:29:26.251Z,3.07
2019-01-31T07:31:55.232Z,2.97
2019-01-31T07:34:25.163Z,2.60
2019-01-31T07:36:54.101Z,3.17
2019-01-31T07:39:23.093Z,2.53
2019-01-31T07:41:52.437Z,2.40
2019-01-31T07:44:21.384Z,3.10
2019-01-31T07:46:50.328Z,2.83
2019-01-31T07:49:19.728Z,3.17
2019-01-31T07:52:33.766Z,2.47
2019-01-31T07:55:02.885Z,2.23
2019-01-31T07:57:31.876Z,2.33
2019-01-31T08:00:00.962Z,2.47
2019-01-31T08:02:30.813Z,2.40
2019-01-31T08:04:59.773Z,1.90
2019-01-31T08:07:29.072Z,1.80
2019-01-31T08:09:58.099Z,2.57
2019-01-31T08:12:27.085Z,2.50
2019-01-31T08:14:56.049Z,2.20
2019-01-31T08:17:25.383Z,2.53
2019-01-31T08:20:03.996Z,2.10
2019-01-31T08:22:32.954Z,2.10
2019-01-31T08:25:01.949Z,2.43
2019-01-31T08:27:31.319Z,2.70
2019-01-31T08:30:00.656Z,2.00
2019-01-31T08:32:50.043Z,2.17
2019-01-31T08:35:18.975Z,2.43
2019-01-31T08:37:48.111Z,2.60
2019-01-31T08:40:17.060Z,2.37
2019-01-31T08:42:46.027Z,2.10
2019-01-31T08:45:15.145Z,2.33
2019-01-31T08:47:44.105Z,2.37
2019-01-31T08:50:14.792Z,2.80
2019-01-31T08:52:44.201Z,2.17
2019-01-31T08:55:13.362Z,2.50
2019-01-31T08:57:47.609Z,2.17
2019-01-31T09:00:26.669Z,2.30
2019-01-31T09:02:56.364Z,1.70
2019-01-31T09:05:25.328Z,2.10
2019-01-31T09:07:54.865Z,2.20
2019-01-31T09:10:45.039Z,2.20
2019-01-31T09:13:14.360Z,2.20
2019-01-31T09:15:43.300Z,2.13
2019-01-31T09:18:12.618Z,2.57
2019-01-31T09:20:52.669Z,2.33
2019-01-31T09:23:44.888Z,2.37
2019-01-31T09:26:48.225Z,2.27
2019-01-31T09:29:29.030Z,2.70
2019-01-31T09:32:31.518Z,2.50
2019-01-31T09:35:05.183Z,2.93
2019-01-31T09:37:50.176Z,2.80
2019-01-31T09:40:38.176Z,2.77
2019-01-31T09:43:32.265Z,2.73
2019-01-31T09:46:20.612Z,2.03
2019-01-31T09:48:56.205Z,2.33
2019-01-31T09:51:42.933Z,2.27
2019-01-31T09:54:18.068Z,3.10
2019-01-31T09:57:29.708Z,2.00
2019-01-31T10:00:11.200Z,2.03
2019-01-31T10:02:47.649Z,2.60
2019-01-31T10:05:44.761Z,2.50
2019-01-31T10:08:33.015Z,2.40
2019-01-31T10:11:24.049Z,2.30
2019-01-31T10:14:17.800Z,2.40
2019-01-31T10:17:11.827Z,2.10
2019-01-31T10:20:02.736Z,1.77
2019-01-31T10:22:35.477Z,2.13
2019-01-31T10:25:16.837Z,2.00
2019-01-31T10:27:53.450Z,1.80
2019-01-31T10:30:59.642Z,2.10
2019-01-31T10:33:46.499Z,1.93
2019-01-31T10:36:23.999Z,1.57
2019-01-31T10:39:11.986Z,2.93
2019-01-31T10:41:44.376Z,2.23
2019-01-31T10:44:23.179Z,1.70
2019-01-31T10:47:26.298Z,1.50
2019-01-31T10:50:04.464Z,1.83
2019-01-31T10:52:46.526Z,2.13
2019-01-31T10:55:37.866Z,1.73
2019-01-31T10:58:27.825Z,2.50
2019-01-31T11:01:02.895Z,2.07
2019-01-31T11:03:57.596Z,1.80
2019-01-31T11:06:44.500Z,2.57
2019-01-31T11:09:31.129Z,2.23
2019-01-31T11:12:25.207Z,2.10
2019-01-31T11:15:05.018Z,2.30
2019-01-31T11:17:46.937Z,2.10
2019-01-31T11:20:33.963Z,1.93
2019-01-31T11:23:22.321Z,1.83
2019-01-31T11:26:15.824Z,1.97
2019-01-31T11:29:12.636Z,2.20
2019-01-31T11:32:06.663Z,2.80
2019-01-31T11:34:57.913Z,1.70
2019-01-31T11:37:44.758Z,2.03
2019-01-31T11:40:18.128Z,1.40
2019-01-31T11:42:52.029Z,1.80
2019-01-31T11:45:58.592Z,2.13
2019-01-31T11:48:49.666Z,2.00
2019-01-31T11:51:36.768Z,2.50
2019-01-31T11:54:11.931Z,2.10
2019-01-31T11:57:05.533Z,2.03
2019-01-31T11:59:33.626Z,2.57
2019-01-31T12:02:02.951Z,2.27
2019-01-31T12:04:32.230Z,2.03
2019-01-31T12:07:01.548Z,1.97
2019-01-31T12:09:30.464Z,1.97
2019-01-31T12:11:59.365Z,2.03
2019-01-31T12:14:28.310Z,2.20
2019-01-31T12:16:57.211Z,2.30
2019-01-31T12:19:26.181Z,1.73
2019-01-31T12:21:55.275Z,1.73
2019-01-31T12:24:24.172Z,1.90
2019-01-31T12:26:53.097Z,1.60
2019-01-31T12:29:22.116Z,1.87
2019-01-31T12:31:51.526Z,1.87
2019-01-31T12:34:20.777Z,1.90
2019-01-31T12:36:51.102Z,2.10
2019-01-31T12:39:20.023Z,1.70
2019-01-31T12:41:48.939Z,1.70
2019-01-31T12:44:18.284Z,1.80
2019-01-31T12:47:06.141Z,1.37
2019-01-31T12:49:35.877Z,1.40
2019-01-31T12:52:04.977Z,1.40
2019-01-31T12:54:33.935Z,2.27
2019-01-31T12:57:03.294Z,2.07
2019-01-31T12:59:32.285Z,2.20
2019-01-31T13:02:01.571Z,1.77
2019-01-31T13:04:30.527Z,2.00
2019-01-31T13:06:59.922Z,1.60
2019-01-31T13:09:29.369Z,1.93
2019-01-31T13:11:58.662Z,1.90
2019-01-31T13:14:28.620Z,1.93
2019-01-31T13:16:57.633Z,2.10
2019-01-31T13:19:26.616Z,1.40
2019-01-31T13:21:55.589Z,1.80
2019-01-31T13:24:24.537Z,1.70
2019-01-31T13:27:30.020Z,2.50
2019-01-31T13:30:15.465Z,1.90
2019-01-31T13:32:44.382Z,2.70
2019-01-31T13:35:13.445Z,2.40
2019-01-31T13:37:42.505Z,2.87
2019-01-31T13:40:13.573Z,2.60
2019-01-31T13:42:42.974Z,2.60
2019-01-31T13:45:12.531Z,2.30
2019-01-31T13:47:41.519Z,2.27
2019-01-31T13:50:10.978Z,2.30
2019-01-31T13:52:39.905Z,2.40
2019-01-31T13:55:12.828Z,1.90
2019-01-31T13:57:42.110Z,1.63
2019-01-31T14:00:11.730Z,2.10
2019-01-31T14:02:40.616Z,1.93
2019-01-31T14:05:09.887Z,1.70
2019-01-31T14:07:38.837Z,2.00
2019-01-31T14:10:08.580Z,2.13
2019-01-31T14:12:37.923Z,1.87
2019-01-31T14:15:07.589Z,2.10
2019-01-31T14:17:36.827Z,2.07
2019-01-31T14:20:06.842Z,2.33
2019-01-31T14:22:45.026Z,2.60
2019-01-31T14:25:14.484Z,2.43
2019-01-31T14:27:43.738Z,2.80
2019-01-31T14:30:21.620Z,2.57
2019-01-31T14:32:51.376Z,2.30
2019-01-31T14:35:20.309Z,2.00
2019-01-31T14:37:49.267Z,2.30
2019-01-31T14:40:21.272Z,2.17
2019-01-31T14:42:50.631Z,2.40
2019-01-31T14:45:19.669Z,2.50
2019-01-31T14:47:55.583Z,3.30
2019-01-31T14:50:30.503Z,4.70
2019-01-31T14:52:59.531Z,3.87
2019-01-31T14:55:28.486Z,4.20
2019-01-31T14:57:57.808Z,4.37
2019-01-31T15:00:27.794Z,2.93
2019-01-31T15:02:56.719Z,3.30
2019-01-31T15:05:25.787Z,2.20
2019-01-31T15:08:02.655Z,2.13
2019-01-31T15:10:31.651Z,2.50
2019-01-31T15:13:00.640Z,3.63
2019-01-31T15:15:29.580Z,3.60
2019-01-31T15:17:58.620Z,3.13
2019-01-31T15:20:37.817Z,3.07
2019-01-31T15:22:59.986Z,2.30
2019-01-31T15:25:28.925Z,2.60
2019-01-31T15:27:57.890Z,3.53
2019-01-31T15:30:30.700Z,3.07
2019-01-31T15:33:00.056Z,3.70
2019-01-31T15:35:31.398Z,3.90
2019-01-31T15:38:00.381Z,3.30
2019-01-31T15:40:43.459Z,2.90
2019-01-31T15:43:12.408Z,3.23
2019-01-31T15:45:41.348Z,3.00
2019-01-31T15:48:10.946Z,3.60
2019-01-31T15:50:40.150Z,3.30
2019-01-31T15:53:09.602Z,3.40
2019-01-31T15:55:38.912Z,3.50
2019-01-31T15:58:08.536Z,3.40
2019-01-31T16:00:43.253Z,3.53
2019-01-31T16:03:13.256Z,3.73
2019-01-31T16:05:42.304Z,4.20
2019-01-31T16:08:11.312Z,5.00
2019-01-31T16:10:40.295Z,3.90
2019-01-31T16:13:09.310Z,3.33
2019-01-31T16:15:38.640Z,3.40
2019-01-31T16:18:08.619Z,3.20
2019-01-31T16:20:37.689Z,4.90
2019-01-31T16:23:06.957Z,4.60
2019-01-31T16:25:36.381Z,5.83
2019-01-31T16:28:06.039Z,5.30
2019-01-31T16:30:35.668Z,5.07
2019-01-31T16:33:05.495Z,4.77
2019-01-31T16:35:50.387Z,4.77
2019-01-31T16:38:20.271Z,3.73
2019-01-31T16:40:49.770Z,4.93
2019-01-31T16:43:19.269Z,3.97
2019-01-31T16:45:54.136Z,4.37
2019-01-31T16:48:23.180Z,4.73
2019-01-31T16:54:03.114Z,4.10
2019-01-31T16:56:34.909Z,3.90
2019-01-31T16:59:04.058Z,5.10
2019-01-31T17:01:35.174Z,3.93
2019-01-31T17:04:04.263Z,4.70
2019-01-31T17:06:34.154Z,5.73
2019-01-31T17:09:03.552Z,5.73
2019-01-31T17:11:33.263Z,4.20
2019-01-31T17:14:05.027Z,4.77
2019-01-31T17:16:33.970Z,6.17
2019-01-31T17:19:03.010Z,5.43
2019-01-31T17:21:38.250Z,4.70
2019-01-31T17:24:07.177Z,5.40
2019-01-31T17:26:36.125Z,5.10
2019-01-31T17:29:05.775Z,5.80
2019-01-31T17:31:34.707Z,6.90
2019-01-31T17:34:03.778Z,5.57
2019-01-31T17:36:32.721Z,7.83
2019-01-31T17:39:02.073Z,6.93
2019-01-31T17:41:31.474Z,6.80
2019-01-31T17:44:07.280Z,6.30
2019-01-31T17:46:36.325Z,6.10
2019-01-31T17:49:05.301Z,5.30
2019-01-31T17:51:34.267Z,5.70
2019-01-31T17:54:12.314Z,5.57
2019-01-31T17:56:41.313Z,5.90
2019-01-31T17:59:10.394Z,5.80
2019-01-31T18:02:08.498Z,5.93
2019-01-31T18:04:37.828Z,5.93
2019-01-31T18:07:15.974Z,5.90
2019-01-31T18:10:05.890Z,6.20
2019-01-31T18:13:05.622Z,6.67
2019-01-31T18:16:01.466Z,5.57
2019-01-31T18:18:30.948Z,6.00
2019-01-31T18:21:02.350Z,5.97
2019-01-31T18:23:31.275Z,6.00
2019-01-31T18:29:10.752Z,7.50
2019-01-31T18:31:40.171Z,6.57
2019-01-31T18:34:09.113Z,6.60
2019-01-31T18:36:38.081Z,7.70
2019-01-31T18:39:08.672Z,7.53
2019-01-31T18:41:38.474Z,8.00
2019-01-31T18:44:07.486Z,6.27
2019-01-31T18:46:36.780Z,5.63
2019-01-31T18:49:05.949Z,5.90
2019-01-31T18:51:34.928Z,5.90
2019-01-31T18:54:04.307Z,6.93
2019-01-31T18:56:33.249Z,6.20
2019-01-31T18:59:02.172Z,6.57
2019-01-31T19:01:31.127Z,6.43
2019-01-31T19:04:00.082Z,6.77
2019-01-31T19:06:29.868Z,7.30
2019-01-31T19:09:20.034Z,7.10
2019-01-31T19:11:48.958Z,7.30
2019-01-31T19:14:18.323Z,7.57
2019-01-31T19:16:47.625Z,8.17
2019-01-31T19:19:16.524Z,7.80
2019-01-31T19:21:45.435Z,7.70
2019-01-31T19:24:14.350Z,8.53
2019-01-31T19:27:02.958Z,8.00
2019-01-31T19:29:31.901Z,8.50
2019-01-31T19:32:03.040Z,9.50
2019-01-31T19:34:36.368Z,8.13
2019-01-31T19:37:05.446Z,7.60
2019-01-31T19:39:35.780Z,8.07
2019-01-31T19:42:05.131Z,7.60
2019-01-31T19:44:36.314Z,8.10
2019-01-31T19:47:05.229Z,7.50
2019-01-31T19:49:34.241Z,7.97
2019-01-31T19:52:09.689Z,7.10
2019-01-31T19:54:38.650Z,8.10
2019-01-31T19:57:13.927Z,8.33
2019-01-31T19:59:42.895Z,7.77
2019-01-31T20:02:12.603Z,7.87
2019-01-31T20:04:49.774Z,8.43
2019-01-31T20:07:20.948Z,8.30
2019-01-31T20:09:49.921Z,9.43
2019-01-31T20:12:31.124Z,8.23
2019-01-31T20:15:00.198Z,8.13
2019-01-31T20:17:29.238Z,8.17
2019-01-31T20:20:13.355Z,7.70
2019-01-31T20:22:42.326Z,9.30
2019-01-31T20:25:11.434Z,9.60
2019-01-31T20:28:09.372Z,8.67
2019-01-31T20:30:38.369Z,8.53
2019-01-31T20:33:07.432Z,8.43
2019-01-31T20:35:36.476Z,8.23
2019-01-31T20:38:05.513Z,8.53
2019-01-31T20:40:38.325Z,7.90
2019-01-31T20:43:07.677Z,9.40
2019-01-31T20:45:36.766Z,9.47
2019-01-31T20:48:06.320Z,9.33
2019-01-31T20:50:35.891Z,8.57
2019-01-31T20:53:04.958Z,8.70
2019-01-31T20:55:33.967Z,8.57
2019-01-31T20:58:09.930Z,8.53
2019-01-31T21:00:39.864Z,8.53
2019-01-31T21:03:09.187Z,8.20
2019-01-31T21:05:38.332Z,8.10
2019-01-31T21:08:08.072Z,8.50
2019-01-31T21:10:37.027Z,9.00
2019-01-31T21:13:06.403Z,8.10
2019-01-31T21:15:35.724Z,7.60
2019-01-31T21:18:05.464Z,8.20
2019-01-31T21:20:34.970Z,9.07
2019-01-31T21:23:04.304Z,8.33
2019-01-31T21:25:34.509Z,8.40
2019-01-31T21:28:03.731Z,8.93
2019-01-31T21:30:33.910Z,8.60
2019-01-31T21:33:02.887Z,8.80
2019-01-31T21:35:32.403Z,9.43
2019-01-31T21:38:01.438Z,8.20
2019-01-31T21:40:31.588Z,7.70
2019-01-31T21:43:07.692Z,9.43
2019-01-31T21:45:36.866Z,8.23
2019-01-31T21:48:06.679Z,8.83
2019-01-31T21:50:35.629Z,9.53
2019-01-31T21:53:05.727Z,9.00
2019-01-31T21:55:34.712Z,8.90
2019-01-31T21:58:03.723Z,9.57
2019-01-31T22:00:32.890Z,10.10
2019-01-31T22:03:02.264Z,11.10
2019-01-31T22:05:31.231Z,9.10
2019-01-31T22:08:00.476Z,10.40
2019-01-31T22:10:29.409Z,9.63
2019-01-31T22:12:58.335Z,9.67
2019-01-31T22:15:29.399Z,9.70
2019-01-31T22:18:00.386Z,9.30
2019-01-31T22:20:29.028Z,9.40
2019-01-31T22:22:57.971Z,8.23
2019-01-31T22:25:27.077Z,8.47
2019-01-31T22:28:02.381Z,8.57
2019-01-31T22:30:32.355Z,7.63
2019-01-31T22:33:01.285Z,7.23
2019-01-31T22:35:33.423Z,7.20
2019-01-31T22:38:02.378Z,7.97
2019-01-31T22:40:31.317Z,5.57
2019-01-31T22:43:00.276Z,5.93
2019-01-31T22:45:38.391Z,6.10
2019-01-31T22:48:10.488Z,5.50
2019-01-31T22:50:45.917Z,4.80
2019-01-31T22:53:14.868Z,5.60
2019-01-31T22:55:43.824Z,5.30
2019-01-31T22:58:13.786Z,5.30
2019-01-31T23:00:55.527Z,4.87
2019-01-31T23:03:24.881Z,4.50
2019-01-31T23:05:53.805Z,5.00
2019-01-31T23:08:31.964Z,4.70
2019-01-31T23:11:00.857Z,4.47
2019-01-31T23:13:30.094Z,4.37
2019-01-31T23:15:58.965Z,4.70
2019-01-31T23:18:27.933Z,4.27
2019-01-31T23:20:57.810Z,4.30
2019-01-31T23:23:34.836Z,4.60
2019-01-31T23:26:03.793Z,4.70
2019-01-31T23:28:32.748Z,4.20
2019-01-31T23:31:01.711Z,4.60
2019-01-31T23:36:40.603Z,4.60
2019-01-31T23:39:10.865Z,4.53
2019-01-31T23:41:39.748Z,4.07
2019-01-31T23:44:08.665Z,4.40
2019-01-31T23:46:37.896Z,4.63
2019-01-31T23:49:06.835Z,4.20
2019-01-31T23:51:36.061Z,4.50
2019-01-31T23:54:05.594Z,4.10
2019-01-31T23:56:34.541Z,5.50
2019-01-31T23:59:03.455Z,4.70
